sensor_id;sensor_type;location;lat;lon;timestamp;temperature;humidity
70321;DHT22;61127;55.826;37.046;2022-07-29T00:00:43;16.10;70.77
70321;DHT22;61127;55.826;37.046;2022-07-29T00:03:13;16.08;70.84
70321;DHT22;61127;55.826;37.046;2022-07-29T00:05:40;16.04;70.79
70321;DHT22;61127;55.826;37.046;2022-07-29T00:08:07;16.02;71.00
70321;DHT22;61127;55.826;37.046;2022-07-29T00:10:33;15.98;70.95
70321;DHT22;61127;55.826;37.046;2022-07-29T00:13:01;15.93;71.13
70321;DHT22;61127;55.826;37.046;2022-07-29T00:15:27;15.91;71.16
70321;DHT22;61127;55.826;37.046;2022-07-29T00:17:53;15.88;71.09
70321;DHT22;61127;55.826;37.046;2022-07-29T00:20:18;15.85;71.36
70321;DHT22;61127;55.826;37.046;2022-07-29T00:22:46;15.83;71.42
70321;DHT22;61127;55.826;37.046;2022-07-29T00:25:12;15.81;71.36
70321;DHT22;61127;55.826;37.046;2022-07-29T00:27:39;15.76;71.33
70321;DHT22;61127;55.826;37.046;2022-07-29T00:30:05;15.73;71.61
70321;DHT22;61127;55.826;37.046;2022-07-29T00:32:32;15.70;71.55
70321;DHT22;61127;55.826;37.046;2022-07-29T00:34:58;15.66;71.44
70321;DHT22;61127;55.826;37.046;2022-07-29T00:37:43;15.59;71.55
70321;DHT22;61127;55.826;37.046;2022-07-29T00:40:09;15.53;71.51
70321;DHT22;61127;55.826;37.046;2022-07-29T00:42:45;15.49;72.14
70321;DHT22;61127;55.826;37.046;2022-07-29T00:45:12;15.45;72.13
70321;DHT22;61127;55.826;37.046;2022-07-29T00:47:38;15.41;72.33
70321;DHT22;61127;55.826;37.046;2022-07-29T00:50:05;15.36;72.27
70321;DHT22;61127;55.826;37.046;2022-07-29T00:52:34;15.33;72.20
70321;DHT22;61127;55.826;37.046;2022-07-29T00:55:00;15.30;71.90
70321;DHT22;61127;55.826;37.046;2022-07-29T00:57:29;15.26;72.32
70321;DHT22;61127;55.826;37.046;2022-07-29T00:59:54;15.22;72.73
70321;DHT22;61127;55.826;37.046;2022-07-29T01:02:21;15.16;72.76
70321;DHT22;61127;55.826;37.046;2022-07-29T01:04:48;15.13;72.89
70321;DHT22;61127;55.826;37.046;2022-07-29T01:07:14;15.12;73.01
70321;DHT22;61127;55.826;37.046;2022-07-29T01:09:41;15.10;72.77
70321;DHT22;61127;55.826;37.046;2022-07-29T01:12:08;15.08;72.79
70321;DHT22;61127;55.826;37.046;2022-07-29T01:14:34;15.02;73.39
70321;DHT22;61127;55.826;37.046;2022-07-29T01:17:14;14.96;73.62
70321;DHT22;61127;55.826;37.046;2022-07-29T01:25:48;14.82;73.84
70321;DHT22;61127;55.826;37.046;2022-07-29T01:31:10;14.79;73.57
70321;DHT22;61127;55.826;37.046;2022-07-29T01:33:41;14.74;73.79
70321;DHT22;61127;55.826;37.046;2022-07-29T01:36:23;14.73;73.75
70321;DHT22;61127;55.826;37.046;2022-07-29T01:38:59;14.74;73.58
70321;DHT22;61127;55.826;37.046;2022-07-29T01:41:31;14.71;73.69
70321;DHT22;61127;55.826;37.046;2022-07-29T01:44:11;14.68;73.75
70321;DHT22;61127;55.826;37.046;2022-07-29T01:46:43;14.67;73.73
70321;DHT22;61127;55.826;37.046;2022-07-29T01:49:24;14.64;73.91
70321;DHT22;61127;55.826;37.046;2022-07-29T01:51:55;14.66;73.83
70321;DHT22;61127;55.826;37.046;2022-07-29T01:54:42;14.63;74.01
70321;DHT22;61127;55.826;37.046;2022-07-29T01:57:11;14.62;73.80
70321;DHT22;61127;55.826;37.046;2022-07-29T01:59:38;14.62;73.75
70321;DHT22;61127;55.826;37.046;2022-07-29T02:02:08;14.62;73.77
70321;DHT22;61127;55.826;37.046;2022-07-29T02:04:36;14.64;73.77
70321;DHT22;61127;55.826;37.046;2022-07-29T02:07:05;14.68;73.68
70321;DHT22;61127;55.826;37.046;2022-07-29T02:09:34;14.69;73.70
70321;DHT22;61127;55.826;37.046;2022-07-29T02:12:03;14.73;73.68
70321;DHT22;61127;55.826;37.046;2022-07-29T02:14:34;14.78;73.67
70321;DHT22;61127;55.826;37.046;2022-07-29T02:17:02;14.83;73.51
70321;DHT22;61127;55.826;37.046;2022-07-29T02:19:32;14.89;73.48
70321;DHT22;61127;55.826;37.046;2022-07-29T02:21:59;14.95;73.32
70321;DHT22;61127;55.826;37.046;2022-07-29T02:24:28;14.97;73.27
70321;DHT22;61127;55.826;37.046;2022-07-29T02:26:56;15.03;73.17
70321;DHT22;61127;55.826;37.046;2022-07-29T02:29:25;15.07;73.04
70321;DHT22;61127;55.826;37.046;2022-07-29T02:31:52;15.06;73.23
70321;DHT22;61127;55.826;37.046;2022-07-29T02:34:21;15.09;73.18
70321;DHT22;61127;55.826;37.046;2022-07-29T02:36:49;15.13;72.94
70321;DHT22;61127;55.826;37.046;2022-07-29T02:39:16;15.16;72.83
70321;DHT22;61127;55.826;37.046;2022-07-29T02:41:57;15.18;72.98
70321;DHT22;61127;55.826;37.046;2022-07-29T02:44:26;15.24;72.72
70321;DHT22;61127;55.826;37.046;2022-07-29T02:51:59;15.40;72.29
70321;DHT22;61127;55.826;37.046;2022-07-29T02:54:31;15.47;71.85
70321;DHT22;61127;55.826;37.046;2022-07-29T02:57:01;15.51;71.87
70321;DHT22;61127;55.826;37.046;2022-07-29T02:59:30;15.59;71.77
70321;DHT22;61127;55.826;37.046;2022-07-29T03:02:00;15.68;71.62
70321;DHT22;61127;55.826;37.046;2022-07-29T03:04:28;15.76;71.51
70321;DHT22;61127;55.826;37.046;2022-07-29T03:06:58;15.88;71.15
70321;DHT22;61127;55.826;37.046;2022-07-29T03:09:29;15.89;71.06
70321;DHT22;61127;55.826;37.046;2022-07-29T03:11:56;15.95;70.54
70321;DHT22;61127;55.826;37.046;2022-07-29T03:14:24;15.98;70.58
70321;DHT22;61127;55.826;37.046;2022-07-29T03:16:50;16.06;70.16
70321;DHT22;61127;55.826;37.046;2022-07-29T03:19:18;16.11;70.25
70321;DHT22;61127;55.826;37.046;2022-07-29T03:21:44;16.15;70.27
70321;DHT22;61127;55.826;37.046;2022-07-29T03:24:10;16.26;70.00
70321;DHT22;61127;55.826;37.046;2022-07-29T03:26:49;16.30;69.60
70321;DHT22;61127;55.826;37.046;2022-07-29T03:29:15;16.33;69.64
70321;DHT22;61127;55.826;37.046;2022-07-29T03:31:41;16.37;69.34
70321;DHT22;61127;55.826;37.046;2022-07-29T03:34:07;16.48;69.33
70321;DHT22;61127;55.826;37.046;2022-07-29T03:36:33;16.55;69.32
70321;DHT22;61127;55.826;37.046;2022-07-29T03:38:59;16.64;68.87
70321;DHT22;61127;55.826;37.046;2022-07-29T03:41:26;16.69;68.39
70321;DHT22;61127;55.826;37.046;2022-07-29T03:43:53;16.73;68.36
70321;DHT22;61127;55.826;37.046;2022-07-29T03:46:22;16.74;68.44
70321;DHT22;61127;55.826;37.046;2022-07-29T03:48:53;16.84;68.26
70321;DHT22;61127;55.826;37.046;2022-07-29T03:51:21;16.89;68.00
70321;DHT22;61127;55.826;37.046;2022-07-29T03:53:48;16.96;67.97
70321;DHT22;61127;55.826;37.046;2022-07-29T03:56:16;17.04;68.00
70321;DHT22;61127;55.826;37.046;2022-07-29T03:58:42;17.10;67.78
70321;DHT22;61127;55.826;37.046;2022-07-29T04:01:10;17.20;67.39
70321;DHT22;61127;55.826;37.046;2022-07-29T04:03:38;17.26;67.40
70321;DHT22;61127;55.826;37.046;2022-07-29T04:06:06;17.35;67.48
70321;DHT22;61127;55.826;37.046;2022-07-29T04:08:33;17.46;67.37
70321;DHT22;61127;55.826;37.046;2022-07-29T04:11:00;17.60;67.27
70321;DHT22;61127;55.826;37.046;2022-07-29T04:13:27;17.70;66.85
70321;DHT22;61127;55.826;37.046;2022-07-29T04:15:53;17.81;66.66
70321;DHT22;61127;55.826;37.046;2022-07-29T04:18:19;17.88;66.39
70321;DHT22;61127;55.826;37.046;2022-07-29T04:20:45;17.96;66.06
70321;DHT22;61127;55.826;37.046;2022-07-29T04:23:12;18.05;65.82
70321;DHT22;61127;55.826;37.046;2022-07-29T04:25:40;18.18;65.66
70321;DHT22;61127;55.826;37.046;2022-07-29T04:28:06;18.35;65.27
70321;DHT22;61127;55.826;37.046;2022-07-29T04:30:34;18.51;64.94
70321;DHT22;61127;55.826;37.046;2022-07-29T04:33:03;18.66;64.67
70321;DHT22;61127;55.826;37.046;2022-07-29T04:35:30;18.79;64.37
70321;DHT22;61127;55.826;37.046;2022-07-29T04:37:56;18.93;64.23
70321;DHT22;61127;55.826;37.046;2022-07-29T04:40:22;19.12;64.11
70321;DHT22;61127;55.826;37.046;2022-07-29T04:42:48;19.31;63.64
70321;DHT22;61127;55.826;37.046;2022-07-29T04:45:14;19.46;63.28
70321;DHT22;61127;55.826;37.046;2022-07-29T04:47:40;19.63;63.16
70321;DHT22;61127;55.826;37.046;2022-07-29T04:50:08;19.79;62.46
70321;DHT22;61127;55.826;37.046;2022-07-29T04:52:34;19.85;62.30
70321;DHT22;61127;55.826;37.046;2022-07-29T04:55:01;20.01;62.25
70321;DHT22;61127;55.826;37.046;2022-07-29T04:57:29;20.16;61.88
70321;DHT22;61127;55.826;37.046;2022-07-29T04:59:55;20.33;61.58
70321;DHT22;61127;55.826;37.046;2022-07-29T05:02:22;20.55;60.96
70321;DHT22;61127;55.826;37.046;2022-07-29T05:04:48;20.75;60.96
70321;DHT22;61127;55.826;37.046;2022-07-29T05:07:14;20.93;60.31
70321;DHT22;61127;55.826;37.046;2022-07-29T05:09:40;21.07;59.93
70321;DHT22;61127;55.826;37.046;2022-07-29T05:12:06;21.22;59.43
70321;DHT22;61127;55.826;37.046;2022-07-29T05:14:33;21.42;59.59
70321;DHT22;61127;55.826;37.046;2022-07-29T05:16:58;21.50;59.02
70321;DHT22;61127;55.826;37.046;2022-07-29T05:19:24;21.61;58.74
70321;DHT22;61127;55.826;37.046;2022-07-29T05:21:50;21.92;58.56
70321;DHT22;61127;55.826;37.046;2022-07-29T05:24:16;22.17;57.86
70321;DHT22;61127;55.826;37.046;2022-07-29T05:26:42;22.32;57.53
70321;DHT22;61127;55.826;37.046;2022-07-29T05:29:08;22.60;57.25
70321;DHT22;61127;55.826;37.046;2022-07-29T05:31:34;22.87;56.97
70321;DHT22;61127;55.826;37.046;2022-07-29T05:34:01;22.84;56.15
70321;DHT22;61127;55.826;37.046;2022-07-29T05:36:28;22.96;56.12
70321;DHT22;61127;55.826;37.046;2022-07-29T05:38:54;23.03;55.87
70321;DHT22;61127;55.826;37.046;2022-07-29T05:41:19;23.32;55.70
70321;DHT22;61127;55.826;37.046;2022-07-29T05:43:47;23.62;54.89
70321;DHT22;61127;55.826;37.046;2022-07-29T05:46:12;23.77;54.13
70321;DHT22;61127;55.826;37.046;2022-07-29T05:48:39;23.92;54.07
70321;DHT22;61127;55.826;37.046;2022-07-29T05:51:05;24.20;53.59
70321;DHT22;61127;55.826;37.046;2022-07-29T05:53:32;24.50;52.36
70321;DHT22;61127;55.826;37.046;2022-07-29T05:56:03;24.56;51.33
70321;DHT22;61127;55.826;37.046;2022-07-29T05:58:30;24.53;52.45
70321;DHT22;61127;55.826;37.046;2022-07-29T06:00:56;24.63;51.69
70321;DHT22;61127;55.826;37.046;2022-07-29T06:03:26;24.85;51.30
70321;DHT22;61127;55.826;37.046;2022-07-29T06:05:52;25.10;50.98
70321;DHT22;61127;55.826;37.046;2022-07-29T06:08:18;25.24;50.18
70321;DHT22;61127;55.826;37.046;2022-07-29T06:10:44;25.24;49.82
70321;DHT22;61127;55.826;37.046;2022-07-29T06:13:12;25.42;48.50
70321;DHT22;61127;55.826;37.046;2022-07-29T06:15:38;25.42;48.96
70321;DHT22;61127;55.826;37.046;2022-07-29T06:18:04;25.38;46.98
70321;DHT22;61127;55.826;37.046;2022-07-29T06:20:35;25.69;47.94
70321;DHT22;61127;55.826;37.046;2022-07-29T06:23:03;26.22;47.17
70321;DHT22;61127;55.826;37.046;2022-07-29T06:25:30;26.42;46.42
70321;DHT22;61127;55.826;37.046;2022-07-29T06:28:00;26.93;46.35
70321;DHT22;61127;55.826;37.046;2022-07-29T06:30:26;27.44;45.53
70321;DHT22;61127;55.826;37.046;2022-07-29T06:32:54;27.85;45.19
70321;DHT22;61127;55.826;37.046;2022-07-29T06:35:20;27.79;44.07
70321;DHT22;61127;55.826;37.046;2022-07-29T06:37:47;27.40;43.81
70321;DHT22;61127;55.826;37.046;2022-07-29T06:40:13;27.85;43.71
70321;DHT22;61127;55.826;37.046;2022-07-29T06:42:58;28.49;43.04
70321;DHT22;61127;55.826;37.046;2022-07-29T06:45:24;28.69;42.94
70321;DHT22;61127;55.826;37.046;2022-07-29T06:47:50;28.83;42.16
70321;DHT22;61127;55.826;37.046;2022-07-29T06:50:16;28.79;40.61
70321;DHT22;61127;55.826;37.046;2022-07-29T06:52:43;28.54;42.29
70321;DHT22;61127;55.826;37.046;2022-07-29T06:55:09;28.80;42.39
70321;DHT22;61127;55.826;37.046;2022-07-29T06:57:36;29.35;41.08
70321;DHT22;61127;55.826;37.046;2022-07-29T07:00:03;29.94;40.46
70321;DHT22;61127;55.826;37.046;2022-07-29T07:02:32;29.89;38.24
70321;DHT22;61127;55.826;37.046;2022-07-29T07:04:57;29.41;39.86
70321;DHT22;61127;55.826;37.046;2022-07-29T07:07:24;28.62;40.62
70321;DHT22;61127;55.826;37.046;2022-07-29T07:09:50;28.82;39.42
70321;DHT22;61127;55.826;37.046;2022-07-29T07:12:17;28.60;39.28
70321;DHT22;61127;55.826;37.046;2022-07-29T07:14:43;28.75;39.48
70321;DHT22;61127;55.826;37.046;2022-07-29T07:17:09;29.64;38.82
70321;DHT22;61127;55.826;37.046;2022-07-29T07:19:35;30.22;37.75
70321;DHT22;61127;55.826;37.046;2022-07-29T07:22:01;30.07;38.59
70321;DHT22;61127;55.826;37.046;2022-07-29T07:24:29;29.72;37.11
70321;DHT22;61127;55.826;37.046;2022-07-29T07:26:55;29.48;38.30
70321;DHT22;61127;55.826;37.046;2022-07-29T07:29:21;30.22;38.42
70321;DHT22;61127;55.826;37.046;2022-07-29T07:31:47;30.95;37.44
70321;DHT22;61127;55.826;37.046;2022-07-29T07:34:13;30.37;35.57
70321;DHT22;61127;55.826;37.046;2022-07-29T07:36:39;30.32;36.38
70321;DHT22;61127;55.826;37.046;2022-07-29T07:39:05;29.88;37.25
70321;DHT22;61127;55.826;37.046;2022-07-29T07:41:31;30.28;37.73
70321;DHT22;61127;55.826;37.046;2022-07-29T07:43:58;31.46;37.05
70321;DHT22;61127;55.826;37.046;2022-07-29T07:46:24;31.25;35.73
70321;DHT22;61127;55.826;37.046;2022-07-29T07:48:50;30.97;35.47
70321;DHT22;61127;55.826;37.046;2022-07-29T07:51:18;31.13;35.62
70321;DHT22;61127;55.826;37.046;2022-07-29T07:53:44;30.76;35.47
70321;DHT22;61127;55.826;37.046;2022-07-29T07:56:10;30.66;34.99
70321;DHT22;61127;55.826;37.046;2022-07-29T07:58:36;30.99;34.84
70321;DHT22;61127;55.826;37.046;2022-07-29T08:01:03;31.54;33.28
70321;DHT22;61127;55.826;37.046;2022-07-29T08:03:29;31.72;33.35
70321;DHT22;61127;55.826;37.046;2022-07-29T08:05:55;31.71;33.25
70321;DHT22;61127;55.826;37.046;2022-07-29T08:08:21;32.11;32.12
70321;DHT22;61127;55.826;37.046;2022-07-29T08:10:47;32.60;31.04
70321;DHT22;61127;55.826;37.046;2022-07-29T08:13:20;32.38;30.91
70321;DHT22;61127;55.826;37.046;2022-07-29T08:15:46;32.48;30.83
70321;DHT22;61127;55.826;37.046;2022-07-29T08:18:13;32.73;30.95
70321;DHT22;61127;55.826;37.046;2022-07-29T08:20:39;33.51;30.80
70321;DHT22;61127;55.826;37.046;2022-07-29T08:23:07;33.95;29.63
70321;DHT22;61127;55.826;37.046;2022-07-29T08:25:37;33.02;29.48
70321;DHT22;61127;55.826;37.046;2022-07-29T08:28:07;32.40;30.37
70321;DHT22;61127;55.826;37.046;2022-07-29T08:30:34;32.12;31.34
70321;DHT22;61127;55.826;37.046;2022-07-29T08:33:01;30.98;31.67
70321;DHT22;61127;55.826;37.046;2022-07-29T08:35:27;29.59;31.76
70321;DHT22;61127;55.826;37.046;2022-07-29T08:37:54;29.13;33.35
70321;DHT22;61127;55.826;37.046;2022-07-29T08:40:20;30.52;32.06
70321;DHT22;61127;55.826;37.046;2022-07-29T08:42:47;32.12;30.70
70321;DHT22;61127;55.826;37.046;2022-07-29T08:45:13;32.64;29.30
70321;DHT22;61127;55.826;37.046;2022-07-29T08:47:39;31.49;29.06
70321;DHT22;61127;55.826;37.046;2022-07-29T08:50:07;30.21;30.44
70321;DHT22;61127;55.826;37.046;2022-07-29T08:52:40;30.61;32.18
70321;DHT22;61127;55.826;37.046;2022-07-29T08:55:08;31.30;30.79
70321;DHT22;61127;55.826;37.046;2022-07-29T08:57:38;32.73;29.80
70321;DHT22;61127;55.826;37.046;2022-07-29T09:00:06;34.26;28.93
70321;DHT22;61127;55.826;37.046;2022-07-29T09:02:39;34.55;27.27
70321;DHT22;61127;55.826;37.046;2022-07-29T09:05:06;35.62;27.11
70321;DHT22;61127;55.826;37.046;2022-07-29T09:07:32;34.49;26.86
70321;DHT22;61127;55.826;37.046;2022-07-29T09:09:59;33.30;28.90
70321;DHT22;61127;55.826;37.046;2022-07-29T09:12:26;34.41;28.23
70321;DHT22;61127;55.826;37.046;2022-07-29T09:14:52;35.84;27.36
70321;DHT22;61127;55.826;37.046;2022-07-29T09:17:44;37.29;24.67
70321;DHT22;61127;55.826;37.046;2022-07-29T09:20:13;36.76;24.21
70321;DHT22;61127;55.826;37.046;2022-07-29T09:22:40;35.60;25.88
70321;DHT22;61127;55.826;37.046;2022-07-29T09:25:07;33.88;26.39
70321;DHT22;61127;55.826;37.046;2022-07-29T09:27:33;32.05;27.81
70321;DHT22;61127;55.826;37.046;2022-07-29T09:30:03;31.01;28.41
70321;DHT22;61127;55.826;37.046;2022-07-29T09:32:33;33.47;28.29
70321;DHT22;61127;55.826;37.046;2022-07-29T09:35:21;35.33;26.49
70321;DHT22;61127;55.826;37.046;2022-07-29T09:37:48;36.52;25.64
70321;DHT22;61127;55.826;37.046;2022-07-29T09:40:16;37.45;24.61
70321;DHT22;61127;55.826;37.046;2022-07-29T09:42:44;38.70;23.62
70321;DHT22;61127;55.826;37.046;2022-07-29T09:45:11;39.51;23.37
70321;DHT22;61127;55.826;37.046;2022-07-29T09:47:44;39.51;21.66
70321;DHT22;61127;55.826;37.046;2022-07-29T09:50:11;39.40;21.88
70321;DHT22;61127;55.826;37.046;2022-07-29T09:52:49;39.41;18.64
70321;DHT22;61127;55.826;37.046;2022-07-29T09:55:16;40.26;21.65
70321;DHT22;61127;55.826;37.046;2022-07-29T09:57:42;41.24;21.24
70321;DHT22;61127;55.826;37.046;2022-07-29T10:00:10;41.74;20.75
70321;DHT22;61127;55.826;37.046;2022-07-29T10:02:41;42.85;20.38
70321;DHT22;61127;55.826;37.046;2022-07-29T10:05:26;43.74;18.32
70321;DHT22;61127;55.826;37.046;2022-07-29T10:07:57;41.54;20.02
70321;DHT22;61127;55.826;37.046;2022-07-29T10:10:25;42.51;19.86
70321;DHT22;61127;55.826;37.046;2022-07-29T10:12:56;42.47;15.35
70321;DHT22;61127;55.826;37.046;2022-07-29T10:15:33;38.94;17.99
70321;DHT22;61127;55.826;37.046;2022-07-29T10:18:03;39.18;18.77
70321;DHT22;61127;55.826;37.046;2022-07-29T10:20:29;38.36;19.44
70321;DHT22;61127;55.826;37.046;2022-07-29T10:22:57;36.99;20.67
70321;DHT22;61127;55.826;37.046;2022-07-29T10:25:24;35.83;21.33
70321;DHT22;61127;55.826;37.046;2022-07-29T10:27:50;35.05;23.19
70321;DHT22;61127;55.826;37.046;2022-07-29T10:30:18;38.24;21.95
70321;DHT22;61127;55.826;37.046;2022-07-29T10:44:07;45.74;15.71
70321;DHT22;61127;55.826;37.046;2022-07-29T10:46:39;46.13;14.61
70321;DHT22;61127;55.826;37.046;2022-07-29T10:49:15;45.28;16.59
70321;DHT22;61127;55.826;37.046;2022-07-29T10:51:51;47.03;14.52
70321;DHT22;61127;55.826;37.046;2022-07-29T10:54:18;48.55;14.98
70321;DHT22;61127;55.826;37.046;2022-07-29T10:56:44;0.00;0.00
70321;DHT22;61127;55.826;37.046;2022-07-29T11:01:46;0.00;0.00
70321;DHT22;61127;55.826;37.046;2022-07-29T11:04:12;0.00;0.00
70321;DHT22;61127;55.826;37.046;2022-07-29T11:09:28;0.00;0.00
70321;DHT22;61127;55.826;37.046;2022-07-29T11:11:56;0.00;0.00
70321;DHT22;61127;55.826;37.046;2022-07-29T11:14:59;0.00;0.00
70321;DHT22;61127;55.826;37.046;2022-07-29T11:17:29;0.00;0.00
70321;DHT22;61127;55.826;37.046;2022-07-29T11:22:59;0.00;0.00
70321;DHT22;61127;55.826;37.046;2022-07-29T11:25:25;0.00;0.00
70321;DHT22;61127;55.826;37.046;2022-07-29T11:27:54;0.00;0.00
70321;DHT22;61127;55.826;37.046;2022-07-29T11:31:06;0.00;0.00
70321;DHT22;61127;55.826;37.046;2022-07-29T11:33:34;0.00;0.00
70321;DHT22;61127;55.826;37.046;2022-07-29T11:36:11;0.00;0.00
70321;DHT22;61127;55.826;37.046;2022-07-29T11:38:38;0.00;0.00
70321;DHT22;61127;55.826;37.046;2022-07-29T11:41:21;47.62;12.38
70321;DHT22;61127;55.826;37.046;2022-07-29T11:43:52;46.51;11.30
70321;DHT22;61127;55.826;37.046;2022-07-29T11:49:22;42.15;15.73
70321;DHT22;61127;55.826;37.046;2022-07-29T11:51:57;45.04;12.17
70321;DHT22;61127;55.826;37.046;2022-07-29T11:54:30;44.01;13.02
70321;DHT22;61127;55.826;37.046;2022-07-29T11:56:58;42.80;12.88
70321;DHT22;61127;55.826;37.046;2022-07-29T11:59:24;40.74;14.10
70321;DHT22;61127;55.826;37.046;2022-07-29T12:01:55;39.63;14.40
70321;DHT22;61127;55.826;37.046;2022-07-29T12:04:22;38.26;14.82
70321;DHT22;61127;55.826;37.046;2022-07-29T12:06:53;36.41;16.48
70321;DHT22;61127;55.826;37.046;2022-07-29T12:09:20;38.20;17.93
70321;DHT22;61127;55.826;37.046;2022-07-29T12:11:47;42.62;15.35
70321;DHT22;61127;55.826;37.046;2022-07-29T12:14:26;45.36;13.28
70321;DHT22;61127;55.826;37.046;2022-07-29T12:16:52;0.00;0.00
70321;DHT22;61127;55.826;37.046;2022-07-29T12:19:18;0.00;0.00
70321;DHT22;61127;55.826;37.046;2022-07-29T12:21:49;48.80;11.85
70321;DHT22;61127;55.826;37.046;2022-07-29T12:24:16;49.44;11.01
70321;DHT22;61127;55.826;37.046;2022-07-29T12:26:54;0.00;0.00
70321;DHT22;61127;55.826;37.046;2022-07-29T12:29:21;0.00;0.00
70321;DHT22;61127;55.826;37.046;2022-07-29T12:31:52;0.00;0.00
70321;DHT22;61127;55.826;37.046;2022-07-29T12:34:22;0.00;0.00
70321;DHT22;61127;55.826;37.046;2022-07-29T12:36:49;0.00;0.00
70321;DHT22;61127;55.826;37.046;2022-07-29T12:39:16;0.00;0.00
70321;DHT22;61127;55.826;37.046;2022-07-29T12:41:43;0.00;0.00
70321;DHT22;61127;55.826;37.046;2022-07-29T12:44:10;0.00;0.00
70321;DHT22;61127;55.826;37.046;2022-07-29T12:46:36;0.00;0.00
70321;DHT22;61127;55.826;37.046;2022-07-29T12:49:03;0.00;0.00
70321;DHT22;61127;55.826;37.046;2022-07-29T12:51:38;0.00;0.00
70321;DHT22;61127;55.826;37.046;2022-07-29T12:54:12;47.13;7.90
70321;DHT22;61127;55.826;37.046;2022-07-29T12:56:44;44.25;10.70
70321;DHT22;61127;55.826;37.046;2022-07-29T12:59:18;46.00;11.08
70321;DHT22;61127;55.826;37.046;2022-07-29T13:01:47;47.76;10.96
70321;DHT22;61127;55.826;37.046;2022-07-29T13:04:32;47.23;8.04
70321;DHT22;61127;55.826;37.046;2022-07-29T13:07:00;47.56;10.68
70321;DHT22;61127;55.826;37.046;2022-07-29T13:09:40;47.85;10.06
70321;DHT22;61127;55.826;37.046;2022-07-29T13:12:07;48.10;10.08
70321;DHT22;61127;55.826;37.046;2022-07-29T13:14:47;48.60;9.86
70321;DHT22;61127;55.826;37.046;2022-07-29T13:17:21;49.33;9.51
70321;DHT22;61127;55.826;37.046;2022-07-29T13:20:05;49.74;8.74
70321;DHT22;61127;55.826;37.046;2022-07-29T13:22:32;48.76;9.65
70321;DHT22;61127;55.826;37.046;2022-07-29T13:24:59;48.01;9.86
70321;DHT22;61127;55.826;37.046;2022-07-29T13:27:32;47.21;10.19
70321;DHT22;61127;55.826;37.046;2022-07-29T13:29:59;47.66;10.24
70321;DHT22;61127;55.826;37.046;2022-07-29T13:32:28;47.71;10.03
70321;DHT22;61127;55.826;37.046;2022-07-29T13:35:01;47.49;9.89
70321;DHT22;61127;55.826;37.046;2022-07-29T13:37:30;47.98;9.99
70321;DHT22;61127;55.826;37.046;2022-07-29T13:39:56;47.17;10.09
70321;DHT22;61127;55.826;37.046;2022-07-29T13:42:23;45.42;10.85
70321;DHT22;61127;55.826;37.046;2022-07-29T13:44:49;42.29;10.27
70321;DHT22;61127;55.826;37.046;2022-07-29T13:47:20;41.60;12.50
70321;DHT22;61127;55.826;37.046;2022-07-29T13:49:46;42.51;11.59
70321;DHT22;61127;55.826;37.046;2022-07-29T13:52:13;43.05;11.36
70321;DHT22;61127;55.826;37.046;2022-07-29T13:54:39;42.96;8.68
70321;DHT22;61127;55.826;37.046;2022-07-29T13:57:05;38.53;11.73
70321;DHT22;61127;55.826;37.046;2022-07-29T13:59:31;36.18;13.84
70321;DHT22;61127;55.826;37.046;2022-07-29T14:01:57;34.86;14.94
70321;DHT22;61127;55.826;37.046;2022-07-29T14:04:23;33.37;16.61
70321;DHT22;61127;55.826;37.046;2022-07-29T14:06:50;34.46;17.64
70321;DHT22;61127;55.826;37.046;2022-07-29T14:09:16;36.61;15.82
70321;DHT22;61127;55.826;37.046;2022-07-29T14:11:42;38.25;13.96
70321;DHT22;61127;55.826;37.046;2022-07-29T14:14:08;38.99;13.80
70321;DHT22;61127;55.826;37.046;2022-07-29T14:16:36;37.54;12.99
70321;DHT22;61127;55.826;37.046;2022-07-29T14:19:02;34.47;15.59
70321;DHT22;61127;55.826;37.046;2022-07-29T14:21:28;32.50;17.76
70321;DHT22;61127;55.826;37.046;2022-07-29T14:23:55;31.26;19.23
70321;DHT22;61127;55.826;37.046;2022-07-29T14:26:21;30.69;19.73
70321;DHT22;61127;55.826;37.046;2022-07-29T14:28:48;30.17;20.93
70321;DHT22;61127;55.826;37.046;2022-07-29T14:31:15;29.51;21.76
70321;DHT22;61127;55.826;37.046;2022-07-29T14:33:41;29.12;22.40
70321;DHT22;61127;55.826;37.046;2022-07-29T14:36:07;28.95;23.01
70321;DHT22;61127;55.826;37.046;2022-07-29T14:38:33;28.69;23.06
70321;DHT22;61127;55.826;37.046;2022-07-29T14:40:59;28.40;23.18
70321;DHT22;61127;55.826;37.046;2022-07-29T14:43:25;28.18;23.92
70321;DHT22;61127;55.826;37.046;2022-07-29T14:45:51;27.91;24.46
70321;DHT22;61127;55.826;37.046;2022-07-29T14:48:16;27.69;24.39
70321;DHT22;61127;55.826;37.046;2022-07-29T14:50:43;27.35;26.65
70321;DHT22;61127;55.826;37.046;2022-07-29T14:53:08;26.94;27.10
70321;DHT22;61127;55.826;37.046;2022-07-29T14:55:34;26.76;27.50
70321;DHT22;61127;55.826;37.046;2022-07-29T14:58:01;26.65;28.43
70321;DHT22;61127;55.826;37.046;2022-07-29T15:00:27;26.62;29.18
70321;DHT22;61127;55.826;37.046;2022-07-29T15:02:54;26.46;29.96
70321;DHT22;61127;55.826;37.046;2022-07-29T15:05:20;26.19;30.19
70321;DHT22;61127;55.826;37.046;2022-07-29T15:07:45;26.01;29.96
70321;DHT22;61127;55.826;37.046;2022-07-29T15:10:12;25.71;30.85
70321;DHT22;61127;55.826;37.046;2022-07-29T15:12:38;25.35;31.76
70321;DHT22;61127;55.826;37.046;2022-07-29T15:15:05;25.10;31.87
70321;DHT22;61127;55.826;37.046;2022-07-29T15:17:30;25.05;32.71
70321;DHT22;61127;55.826;37.046;2022-07-29T15:19:56;25.04;32.86
70321;DHT22;61127;55.826;37.046;2022-07-29T15:22:23;25.09;33.54
70321;DHT22;61127;55.826;37.046;2022-07-29T15:24:49;25.18;33.54
70321;DHT22;61127;55.826;37.046;2022-07-29T15:27:14;25.18;33.67
70321;DHT22;61127;55.826;37.046;2022-07-29T15:29:41;25.29;33.77
70321;DHT22;61127;55.826;37.046;2022-07-29T15:32:07;25.34;34.31
70321;DHT22;61127;55.826;37.046;2022-07-29T15:34:34;25.33;33.28
70321;DHT22;61127;55.826;37.046;2022-07-29T15:36:59;25.29;34.23
70321;DHT22;61127;55.826;37.046;2022-07-29T15:39:26;25.38;34.05
70321;DHT22;61127;55.826;37.046;2022-07-29T15:41:52;25.39;33.21
70321;DHT22;61127;55.826;37.046;2022-07-29T15:44:19;25.14;34.38
70321;DHT22;61127;55.826;37.046;2022-07-29T15:46:45;24.94;34.95
70321;DHT22;61127;55.826;37.046;2022-07-29T15:49:39;24.78;35.85
70321;DHT22;61127;55.826;37.046;2022-07-29T15:52:07;24.60;35.62
70321;DHT22;61127;55.826;37.046;2022-07-29T15:54:35;24.47;36.54
70321;DHT22;61127;55.826;37.046;2022-07-29T15:57:02;24.34;36.27
70321;DHT22;61127;55.826;37.046;2022-07-29T15:59:27;24.21;36.27
70321;DHT22;61127;55.826;37.046;2022-07-29T16:01:54;24.12;36.98